Time;durP1;ratioP1;P1;durP2;ratioP2;P2;SDS_P1;SDS_P2;PMS_P1;PMS_P2;Temp;Humidity;BMP_temperature;BMP_pressure;BME280_temperature;BME280_humidity;BME280_pressure;Samples;Min_cycle;Max_cycle;Signal;HPM_P1;HPM_P2
2023/04/14 00:00:47;;;;;;;7.63;5.65;;;11.90;99.90;;;;;;5073994;28;20243;-75
2023/04/14 00:03:15;;;;;;;5.88;5.22;;;11.90;99.90;;;;;;5064640;28;20219;-75
2023/04/14 00:05:42;;;;;;;6.35;5.75;;;11.90;99.90;;;;;;5077617;28;20735;-77
2023/04/14 00:08:11;;;;;;;5.90;5.30;;;11.90;99.90;;;;;;5082769;28;20349;-76
2023/04/14 00:10:42;;;;;;;5.43;4.85;;;11.90;99.90;;;;;;5077185;28;20238;-76
2023/04/14 00:13:10;;;;;;;6.07;5.28;;;11.90;99.90;;;;;;5071539;28;20898;-77
2023/04/14 00:15:37;;;;;;;6.93;5.95;;;11.80;99.90;;;;;;5070405;28;20232;-76
2023/04/14 00:18:04;;;;;;;7.72;6.97;;;11.80;99.90;;;;;;5083107;28;20224;-76
2023/04/14 00:20:33;;;;;;;7.28;6.57;;;11.80;99.90;;;;;;5086961;28;20261;-75
2023/04/14 00:23:00;;;;;;;7.88;7.18;;;11.80;99.90;;;;;;5093036;28;20269;-75
2023/04/14 00:25:28;;;;;;;8.70;7.90;;;11.80;99.90;;;;;;5093269;28;20223;-77
2023/04/14 00:27:56;;;;;;;7.60;7.00;;;11.80;99.90;;;;;;5094143;28;20565;-77
2023/04/14 00:30:23;;;;;;;6.50;5.90;;;11.80;99.90;;;;;;5093533;28;20599;-77
2023/04/14 00:32:50;;;;;;;7.65;6.85;;;11.70;99.90;;;;;;5093511;28;20555;-77
2023/04/14 00:35:17;;;;;;;7.97;7.20;;;11.70;99.90;;;;;;5089440;28;20289;-75
2023/04/14 00:37:45;;;;;;;7.93;7.22;;;11.70;99.90;;;;;;5073343;28;20708;-75
2023/04/14 00:40:12;;;;;;;8.40;7.18;;;11.70;99.90;;;;;;5072890;28;20227;-76
2023/04/14 00:42:45;;;;;;;9.13;8.07;;;11.70;99.90;;;;;;5073513;28;20317;-75
2023/04/14 00:45:13;;;;;;;9.35;8.40;;;11.70;99.90;;;;;;5072720;28;20642;-76
2023/04/14 00:47:41;;;;;;;10.10;9.20;;;11.70;99.90;;;;;;5028627;28;1288205;-76
2023/04/14 00:50:10;;;;;;;13.50;11.88;;;11.70;99.90;;;;;;5074078;28;20786;-78
2023/04/14 00:52:39;;;;;;;11.20;9.95;;;11.70;99.90;;;;;;5073513;28;20360;-76
2023/04/14 00:55:07;;;;;;;13.40;11.80;;;11.70;99.90;;;;;;5072833;28;20242;-76
2023/04/14 00:57:35;;;;;;;9.25;8.35;;;11.70;99.90;;;;;;5072893;28;20224;-75
2023/04/14 01:00:05;;;;;;;12.95;11.65;;;11.70;99.90;;;;;;5074033;28;20302;-78
2023/04/14 01:02:32;;;;;;;13.63;11.13;;;11.70;99.90;;;;;;5074024;28;20220;-75
2023/04/14 01:04:59;;;;;;;14.18;12.88;;;11.70;99.90;;;;;;5076838;28;20236;-76
2023/04/14 01:07:28;;;;;;;12.45;11.25;;;11.70;99.90;;;;;;5077895;28;20282;-76
2023/04/14 01:09:56;;;;;;;12.30;11.10;;;11.80;99.90;;;;;;5076795;28;20227;-77
2023/04/14 01:12:35;;;;;;;12.95;11.75;;;11.70;99.90;;;;;;5076419;28;20216;-79
2023/04/14 01:18:41;;;;;;;14.20;12.77;;;11.70;99.90;;;;;;5078144;28;20353;-78
2023/04/14 01:21:12;;;;;;;13.88;12.52;;;11.70;99.90;;;;;;5075230;28;20220;-76
2023/04/14 01:23:42;;;;;;;13.98;10.52;;;11.70;99.90;;;;;;5075470;28;20308;-78
2023/04/14 01:26:28;;;;;;;9.70;8.20;;;11.70;99.90;;;;;;5075050;28;20689;-76
2023/04/14 01:29:14;;;;;;;8.32;6.25;;;11.70;99.90;;;;;;5075397;28;20224;-78
2023/04/14 01:31:59;;;;;;;7.18;6.10;;;11.70;99.90;;;;;;5075497;28;20228;-78
2023/04/14 01:34:33;;;;;;;9.98;6.50;;;11.70;99.90;;;;;;5074683;28;20235;-76
2023/04/14 01:37:05;;;;;;;6.10;5.50;;;11.70;99.90;;;;;;5075227;28;20216;-76
2023/04/14 01:39:36;;;;;;;4.80;4.40;;;11.70;99.90;;;;;;5073718;28;20239;-76
2023/04/14 01:42:08;;;;;;;5.53;5.10;;;11.70;99.90;;;;;;5074913;28;20254;-76
2023/04/14 01:44:37;;;;;;;7.00;4.00;;;11.70;99.90;;;;;;5077490;28;20289;-76
2023/04/14 01:47:09;;;;;;;5.22;4.35;;;11.80;99.90;;;;;;5074919;28;20220;-76
2023/04/14 01:49:39;;;;;;;4.47;4.03;;;11.80;99.90;;;;;;5076371;28;20224;-76
2023/04/14 01:52:10;;;;;;;6.25;4.30;;;11.70;99.90;;;;;;5079125;28;20304;-76
2023/04/14 01:54:40;;;;;;;4.88;4.40;;;11.70;99.90;;;;;;5084484;28;20231;-79
2023/04/14 01:57:12;;;;;;;5.28;4.80;;;11.70;99.90;;;;;;5077365;28;20215;-76
2023/04/14 01:59:42;;;;;;;4.80;4.18;;;11.70;99.90;;;;;;5076700;28;20220;-79
2023/04/14 02:02:13;;;;;;;4.75;4.35;;;11.70;99.90;;;;;;5076817;28;20266;-78
2023/04/14 02:04:41;;;;;;;3.75;3.33;;;11.70;99.90;;;;;;5076657;28;20231;-78
2023/04/14 02:07:11;;;;;;;4.80;3.58;;;11.70;99.90;;;;;;5076023;28;20650;-76
2023/04/14 02:09:41;;;;;;;4.75;3.53;;;11.70;99.90;;;;;;5080139;28;20224;-75
2023/04/14 02:12:10;;;;;;;4.82;3.80;;;11.70;99.90;;;;;;5079893;28;20212;-78
2023/04/14 02:14:38;;;;;;;4.25;3.63;;;11.70;99.90;;;;;;5081469;28;20239;-77
2023/04/14 02:17:06;;;;;;;4.13;3.70;;;11.70;99.90;;;;;;5080914;28;20219;-79
2023/04/14 02:19:36;;;;;;;4.55;4.00;;;11.60;99.90;;;;;;5080841;28;20224;-80
2023/04/14 02:22:04;;;;;;;3.97;3.67;;;11.70;99.90;;;;;;5078873;28;20230;-76
2023/04/14 02:24:31;;;;;;;3.83;3.55;;;11.60;99.90;;;;;;5079249;28;20243;-79
2023/04/14 02:27:04;;;;;;;5.10;4.25;;;11.70;99.90;;;;;;5078541;28;20216;-79
2023/04/14 02:29:35;;;;;;;3.78;3.30;;;11.70;99.90;;;;;;5078291;28;20224;-80
2023/04/14 02:32:04;;;;;;;6.07;3.42;;;11.70;99.90;;;;;;5078426;28;20231;-79
2023/04/14 02:34:46;;;;;;;3.95;3.65;;;11.80;99.90;;;;;;5077632;28;20236;-79
2023/04/14 02:37:20;;;;;;;4.80;4.07;;;11.80;99.90;;;;;;5076802;28;20223;-77
2023/04/14 02:39:53;;;;;;;4.30;3.65;;;11.80;99.90;;;;;;5077519;28;20231;-79
2023/04/14 02:42:24;;;;;;;4.57;3.45;;;11.80;99.90;;;;;;5076732;28;20220;-76
2023/04/14 02:44:58;;;;;;;5.32;3.88;;;11.90;99.90;;;;;;5076101;28;20224;-77
2023/04/14 02:47:29;;;;;;;4.88;3.42;;;11.90;99.90;;;;;;5075555;28;20224;-79
2023/04/14 02:50:00;;;;;;;5.50;4.22;;;12.00;99.90;;;;;;5076322;28;20669;-79
2023/04/14 02:52:30;;;;;;;4.05;3.60;;;12.00;99.90;;;;;;5076429;28;20220;-76
2023/04/14 02:54:58;;;;;;;3.75;3.45;;;12.00;99.90;;;;;;5076357;28;20228;-79
2023/04/14 02:57:26;;;;;;;7.63;4.30;;;12.00;99.90;;;;;;5065740;28;20283;-79
2023/04/14 02:59:56;;;;;;;4.20;3.40;;;12.00;99.90;;;;;;5076244;28;20232;-77
2023/04/14 03:02:23;;;;;;;3.75;3.45;;;12.00;99.90;;;;;;5075631;28;20228;-79
2023/04/14 03:04:52;;;;;;;4.53;3.85;;;12.00;99.90;;;;;;5076323;28;20238;-75
2023/04/14 03:07:22;;;;;;;4.22;3.83;;;12.00;99.90;;;;;;5074931;28;20224;-78
2023/04/14 03:09:50;;;;;;;4.88;4.03;;;12.00;99.90;;;;;;5076099;28;20665;-76
2023/04/14 03:12:18;;;;;;;4.57;3.85;;;12.00;99.90;;;;;;5074286;28;20246;-75
2023/04/14 03:14:45;;;;;;;4.30;3.58;;;12.00;99.90;;;;;;5074832;28;20232;-78
2023/04/14 03:17:16;;;;;;;4.07;3.72;;;12.00;99.90;;;;;;5075024;28;20220;-77
2023/04/14 03:19:47;;;;;;;4.07;3.72;;;12.00;99.90;;;;;;5075720;28;20614;-79
2023/04/14 03:22:16;;;;;;;5.45;3.95;;;12.00;99.90;;;;;;5075413;28;20239;-76
2023/04/14 03:24:45;;;;;;;5.93;4.57;;;12.00;99.90;;;;;;5075861;28;20224;-76
2023/04/14 03:27:15;;;;;;;5.60;4.20;;;12.00;99.90;;;;;;5074137;28;20228;-78
2023/04/14 03:29:49;;;;;;;5.55;4.07;;;12.00;99.90;;;;;;5075030;28;20244;-77
2023/04/14 03:32:19;;;;;;;4.35;3.95;;;12.00;99.90;;;;;;5074900;28;20227;-76
2023/04/14 03:34:52;;;;;;;7.68;4.70;;;12.00;99.90;;;;;;5076154;28;20232;-78
2023/04/14 03:37:24;;;;;;;10.10;4.32;;;11.90;99.90;;;;;;5075621;28;20278;-78
2023/04/14 03:39:58;;;;;;;5.70;4.50;;;11.90;99.90;;;;;;5075983;28;20227;-75
2023/04/14 03:42:27;;;;;;;4.95;4.45;;;11.90;99.90;;;;;;5075310;28;20255;-77
2023/04/14 03:44:57;;;;;;;4.20;3.80;;;11.80;99.90;;;;;;5076041;28;20248;-78
2023/04/14 03:47:27;;;;;;;5.60;4.72;;;11.80;99.90;;;;;;5074721;28;20633;-79
2023/04/14 03:49:58;;;;;;;5.20;4.70;;;11.80;99.90;;;;;;5076233;28;20239;-78
2023/04/14 03:52:27;;;;;;;6.60;4.15;;;11.80;99.90;;;;;;5075200;28;20228;-79
2023/04/14 03:54:58;;;;;;;4.30;3.88;;;11.70;99.90;;;;;;5075504;28;20232;-76
2023/04/14 03:57:29;;;;;;;4.88;4.20;;;11.70;99.90;;;;;;5074557;28;20238;-76
2023/04/14 03:59:58;;;;;;;5.63;5.07;;;11.60;99.90;;;;;;5075155;28;20243;-78
2023/04/14 04:02:27;;;;;;;5.00;4.50;;;11.60;99.90;;;;;;5074601;28;20220;-78
2023/04/14 04:04:55;;;;;;;5.18;4.40;;;11.60;99.90;;;;;;5074875;28;20224;-79
2023/04/14 04:07:25;;;;;;;5.28;4.78;;;11.50;99.90;;;;;;5074269;28;20239;-75
2023/04/14 04:09:53;;;;;;;5.30;4.82;;;11.50;99.90;;;;;;5074752;28;20224;-75
2023/04/14 04:12:23;;;;;;;5.38;4.30;;;11.50;99.90;;;;;;5074010;28;20247;-75
2023/04/14 04:14:50;;;;;;;5.57;4.78;;;11.50;99.90;;;;;;5074260;28;20235;-75
2023/04/14 04:17:22;;;;;;;4.53;4.07;;;11.50;99.90;;;;;;5073774;28;20281;-78
2023/04/14 04:19:50;;;;;;;4.97;4.38;;;11.40;99.90;;;;;;5074051;28;20553;-79
2023/04/14 04:22:20;;;;;;;4.80;4.40;;;11.40;99.90;;;;;;5073506;28;20585;-77
2023/04/14 04:24:48;;;;;;;5.07;4.63;;;11.40;99.90;;;;;;5074619;28;20228;-77
2023/04/14 04:27:15;;;;;;;5.82;4.75;;;11.40;99.90;;;;;;5073698;28;20285;-76
2023/04/14 04:29:44;;;;;;;11.18;5.68;;;11.40;99.90;;;;;;5073487;28;20239;-77
2023/04/14 04:32:14;;;;;;;5.53;4.80;;;11.40;99.90;;;;;;5073800;28;20228;-79
2023/04/14 04:34:42;;;;;;;4.90;4.10;;;11.40;99.90;;;;;;5073728;28;20518;-80
2023/04/14 04:37:10;;;;;;;5.55;4.90;;;11.40;99.90;;;;;;5074052;28;20308;-77
2023/04/14 04:39:38;;;;;;;4.93;4.47;;;11.50;99.90;;;;;;5073974;28;20231;-79
2023/04/14 04:42:06;;;;;;;5.07;4.60;;;11.50;99.90;;;;;;5073858;28;20290;-79
2023/04/14 04:44:34;;;;;;;5.25;4.68;;;11.50;99.90;;;;;;5073535;28;20220;-79
2023/04/14 04:47:03;;;;;;;4.15;3.85;;;11.50;99.90;;;;;;5073500;28;20247;-76
2023/04/14 04:49:30;;;;;;;6.53;5.25;;;11.60;99.90;;;;;;5073028;28;20223;-77
2023/04/14 04:51:58;;;;;;;6.32;5.18;;;11.50;99.90;;;;;;5073639;28;20228;-77
2023/04/14 04:54:25;;;;;;;5.75;4.30;;;11.50;99.90;;;;;;5073979;28;20227;-75
2023/04/14 04:56:52;;;;;;;6.28;5.65;;;11.50;99.90;;;;;;5074478;28;20663;-76
2023/04/14 04:59:19;;;;;;;6.93;4.65;;;11.50;99.90;;;;;;5074634;28;20253;-76
2023/04/14 05:01:47;;;;;;;6.93;5.10;;;11.50;99.90;;;;;;5074013;28;20227;-76
2023/04/14 05:04:15;;;;;;;8.18;4.55;;;11.50;99.90;;;;;;5074718;28;20233;-79
2023/04/14 05:06:43;;;;;;;5.68;5.05;;;11.50;99.90;;;;;;5074407;28;20360;-76
2023/04/14 05:09:10;;;;;;;5.40;4.90;;;11.50;99.90;;;;;;5074127;28;20223;-79
2023/04/14 05:11:37;;;;;;;5.05;4.50;;;11.50;99.90;;;;;;5073242;28;20285;-76
2023/04/14 05:14:05;;;;;;;6.32;4.88;;;11.50;99.90;;;;;;5074270;28;20293;-76
2023/04/14 05:16:37;;;;;;;4.63;4.32;;;11.50;99.90;;;;;;5073550;28;20292;-77
2023/04/14 05:19:04;;;;;;;6.90;6.15;;;11.50;99.90;;;;;;5074390;28;20228;-76
2023/04/14 05:21:33;;;;;;;6.15;5.65;;;11.50;99.90;;;;;;5074197;28;20216;-79
2023/04/14 05:24:00;;;;;;;5.25;4.75;;;11.50;99.90;;;;;;5074386;28;20227;-79
2023/04/14 05:26:28;;;;;;;6.97;5.43;;;11.50;99.90;;;;;;5073694;28;20254;-79
2023/04/14 05:28:55;;;;;;;6.47;5.85;;;11.50;99.90;;;;;;5074280;28;20220;-79
2023/04/14 05:31:22;;;;;;;6.95;5.18;;;11.40;99.90;;;;;;5074134;28;20228;-79
2023/04/14 05:33:52;;;;;;;4.70;4.40;;;11.50;99.90;;;;;;5073707;28;20228;-76
2023/04/14 05:36:21;;;;;;;5.38;4.97;;;11.40;99.90;;;;;;5074928;28;20787;-76
2023/04/14 05:38:50;;;;;;;7.65;5.10;;;11.40;99.90;;;;;;5074533;28;20247;-79
2023/04/14 05:41:17;;;;;;;6.85;6.20;;;11.40;99.90;;;;;;5074694;28;20219;-80
2023/04/14 05:43:45;;;;;;;5.80;5.20;;;11.40;99.90;;;;;;5073202;28;20256;-76
2023/04/14 05:46:23;;;;;;;8.85;5.75;;;11.40;99.90;;;;;;5073807;28;20267;-77
2023/04/14 05:48:57;;;;;;;5.82;5.38;;;11.40;99.90;;;;;;5074145;28;20248;-79
2023/04/14 05:51:27;;;;;;;6.82;5.65;;;11.40;99.90;;;;;;5074394;28;20243;-76
2023/04/14 05:54:03;;;;;;;6.85;4.75;;;11.40;99.90;;;;;;5071324;28;20231;-76
2023/04/14 05:56:30;;;;;;;5.50;5.10;;;11.50;99.90;;;;;;5075105;28;20305;-79
2023/04/14 05:58:59;;;;;;;7.05;4.95;;;11.40;99.90;;;;;;5074425;28;20235;-76
2023/04/14 06:01:26;;;;;;;7.10;4.82;;;11.40;99.90;;;;;;5074741;28;20219;-78
2023/04/14 06:03:53;;;;;;;6.13;5.65;;;11.40;99.90;;;;;;5073830;28;20224;-79
2023/04/14 06:06:20;;;;;;;5.07;4.60;;;11.40;99.90;;;;;;5074777;28;20220;-79
2023/04/14 06:08:47;;;;;;;6.32;4.93;;;11.40;99.90;;;;;;5073515;28;20227;-76
2023/04/14 06:11:15;;;;;;;8.05;5.35;;;11.40;99.90;;;;;;5074010;28;20300;-76
2023/04/14 06:13:42;;;;;;;4.63;4.22;;;11.40;99.90;;;;;;5073568;28;20303;-79
2023/04/14 06:16:09;;;;;;;4.38;4.07;;;11.50;99.90;;;;;;5074566;28;20220;-79
2023/04/14 06:18:37;;;;;;;4.65;4.35;;;11.50;99.90;;;;;;5073538;28;20227;-77
2023/04/14 06:21:04;;;;;;;5.35;4.85;;;11.50;99.90;;;;;;5073918;28;20650;-79
2023/04/14 06:23:32;;;;;;;6.45;4.95;;;11.50;99.90;;;;;;5075902;28;20681;-79
2023/04/14 06:25:59;;;;;;;8.60;5.45;;;11.50;99.90;;;;;;5075119;28;20253;-78
2023/04/14 06:28:30;;;;;;;5.70;5.13;;;11.50;99.90;;;;;;5080462;28;20220;-78
2023/04/14 06:30:59;;;;;;;5.57;4.90;;;11.50;99.90;;;;;;5066715;28;20235;-79
2023/04/14 06:33:26;;;;;;;5.00;4.60;;;11.50;99.90;;;;;;5077557;28;20273;-80
2023/04/14 06:35:53;;;;;;;6.20;4.72;;;11.50;99.90;;;;;;5077762;28;20239;-79
2023/04/14 06:38:21;;;;;;;5.60;5.10;;;11.50;99.90;;;;;;5076223;28;20239;-79
2023/04/14 06:40:47;;;;;;;6.63;4.50;;;11.60;99.90;;;;;;5076351;28;20224;-79
2023/04/14 06:43:16;;;;;;;8.23;5.60;;;11.60;99.90;;;;;;5077276;28;20224;-79
2023/04/14 06:45:45;;;;;;;4.90;4.50;;;11.60;99.90;;;;;;5075272;28;20235;-79
2023/04/14 06:48:12;;;;;;;6.88;6.13;;;11.60;99.90;;;;;;5077230;28;20246;-79
2023/04/14 06:50:39;;;;;;;7.10;6.07;;;11.70;99.90;;;;;;5074764;28;20228;-78
2023/04/14 06:53:08;;;;;;;6.57;5.95;;;11.70;99.90;;;;;;5074594;28;20658;-78
2023/04/14 06:55:36;;;;;;;6.97;5.78;;;11.70;99.90;;;;;;5076949;28;20224;-79
2023/04/14 06:58:02;;;;;;;6.45;5.63;;;11.70;99.90;;;;;;5079421;28;20314;-79
2023/04/14 07:00:30;;;;;;;5.80;5.20;;;11.80;99.90;;;;;;5087446;28;20239;-78
2023/04/14 07:02:59;;;;;;;6.95;6.00;;;11.80;99.90;;;;;;5089751;28;20250;-79
2023/04/14 07:05:26;;;;;;;8.00;6.38;;;11.80;99.90;;;;;;5093072;28;20228;-78
2023/04/14 07:07:59;;;;;;;6.43;5.53;;;11.80;99.90;;;;;;5092918;28;20231;-78
2023/04/14 07:10:27;;;;;;;6.88;5.78;;;11.80;99.90;;;;;;5094295;28;20227;-79
2023/04/14 07:12:54;;;;;;;5.95;5.45;;;11.80;99.90;;;;;;5093096;28;20235;-79
2023/04/14 07:15:21;;;;;;;6.15;5.65;;;11.80;99.90;;;;;;5091082;28;20250;-78
2023/04/14 07:17:48;;;;;;;7.97;7.28;;;11.80;99.90;;;;;;5087355;28;20244;-78
2023/04/14 07:20:17;;;;;;;7.95;5.50;;;11.80;99.90;;;;;;5079772;28;20560;-76
2023/04/14 07:22:44;;;;;;;10.23;9.23;;;11.90;99.90;;;;;;5082342;28;20228;-77
2023/04/14 07:25:12;;;;;;;7.28;5.93;;;11.90;99.90;;;;;;5082534;28;20610;-78
2023/04/14 07:27:39;;;;;;;6.57;5.97;;;11.90;99.90;;;;;;5072233;28;20283;-78
2023/04/14 07:30:07;;;;;;;9.80;7.45;;;11.90;99.90;;;;;;5072275;28;20602;-79
2023/04/14 07:32:35;;;;;;;11.73;8.30;;;11.90;99.90;;;;;;5088859;28;20289;-78
2023/04/14 07:35:02;;;;;;;6.95;6.25;;;11.90;99.90;;;;;;5087140;28;20234;-78
2023/04/14 07:37:31;;;;;;;9.32;5.50;;;11.90;99.90;;;;;;5072006;28;20247;-78
2023/04/14 07:39:58;;;;;;;8.23;7.47;;;11.90;99.90;;;;;;5079798;28;20220;-78
2023/04/14 07:42:25;;;;;;;7.47;6.78;;;11.90;99.90;;;;;;5072791;28;20270;-78
2023/04/14 07:45:32;;;;;;;9.77;7.68;;;11.90;99.90;;;;;;5099017;22;20227;-77
2023/04/14 07:47:59;;;;;;;8.63;6.45;;;12.00;99.90;;;;;;5080679;28;20219;-76
2023/04/14 07:50:26;;;;;;;7.70;6.35;;;12.00;99.90;;;;;;5087146;28;20283;-75
2023/04/14 07:52:55;;;;;;;7.22;6.28;;;12.00;99.90;;;;;;5093678;28;20258;-76
2023/04/14 07:55:22;;;;;;;6.95;6.10;;;12.00;99.90;;;;;;5094430;28;20216;-76
2023/04/14 07:57:49;;;;;;;5.50;5.10;;;12.00;99.90;;;;;;5095289;28;20302;-76
2023/04/14 08:00:16;;;;;;;6.97;6.35;;;12.10;99.90;;;;;;5094615;28;20304;-77
2023/04/14 08:02:43;;;;;;;9.40;6.75;;;12.10;99.90;;;;;;5070147;28;20220;-76
2023/04/14 08:05:11;;;;;;;10.25;6.68;;;12.10;99.90;;;;;;5092876;28;20243;-76
2023/04/14 08:07:38;;;;;;;7.57;6.97;;;12.00;99.90;;;;;;5088264;28;20227;-76
2023/04/14 08:10:08;;;;;;;6.00;5.40;;;12.00;99.90;;;;;;5100196;28;20223;-79
2023/04/14 08:12:35;;;;;;;8.10;5.80;;;11.90;99.90;;;;;;5100811;28;20230;-76
2023/04/14 08:15:02;;;;;;;5.50;4.72;;;11.90;99.90;;;;;;5106514;28;20227;-78
2023/04/14 08:17:29;;;;;;;6.30;5.55;;;11.90;99.90;;;;;;5100958;28;20239;-76
2023/04/14 08:19:56;;;;;;;4.85;4.38;;;11.80;99.90;;;;;;5100096;28;20280;-76
2023/04/14 08:22:24;;;;;;;4.60;4.20;;;11.90;99.90;;;;;;5098490;28;20245;-78
2023/04/14 08:24:51;;;;;;;5.45;5.05;;;11.90;99.90;;;;;;5095103;28;20227;-78
2023/04/14 08:27:19;;;;;;;4.85;4.45;;;11.90;99.90;;;;;;5094848;28;20620;-78
2023/04/14 08:29:46;;;;;;;6.15;5.25;;;11.90;99.90;;;;;;5079614;28;20247;-78
2023/04/14 08:32:13;;;;;;;5.05;4.55;;;12.00;99.90;;;;;;5082543;28;20223;-78
2023/04/14 08:34:40;;;;;;;4.65;4.20;;;11.90;99.90;;;;;;5095642;28;20311;-78
2023/04/14 08:37:08;;;;;;;4.22;3.83;;;12.00;99.90;;;;;;5094891;28;20270;-78
2023/04/14 08:39:35;;;;;;;6.78;6.18;;;12.00;99.90;;;;;;5094145;28;20247;-78
2023/04/14 08:42:03;;;;;;;5.32;4.82;;;11.90;99.90;;;;;;5094802;28;20289;-78
2023/04/14 08:44:32;;;;;;;5.05;4.15;;;12.00;99.90;;;;;;5093606;28;20258;-78
2023/04/14 08:47:00;;;;;;;7.72;7.03;;;12.00;99.90;;;;;;5094702;28;20673;-78
2023/04/14 08:49:36;;;;;;;7.75;7.05;;;12.00;99.90;;;;;;5093797;28;20227;-77
2023/04/14 08:52:04;;;;;;;7.40;6.60;;;12.00;99.90;;;;;;5094488;28;20219;-78
2023/04/14 08:54:32;;;;;;;6.88;5.97;;;12.00;99.90;;;;;;5094028;28;20234;-78
2023/04/14 08:57:01;;;;;;;6.55;5.82;;;12.00;99.90;;;;;;5094312;28;20223;-78
2023/04/14 08:59:29;;;;;;;7.30;6.60;;;12.00;99.90;;;;;;5094060;28;20299;-78
2023/04/14 09:01:58;;;;;;;8.35;7.55;;;12.00;99.90;;;;;;5093823;28;20247;-78
2023/04/14 09:04:27;;;;;;;6.97;6.28;;;12.00;99.90;;;;;;5093548;28;20718;-77
2023/04/14 09:06:56;;;;;;;7.00;6.35;;;12.00;99.90;;;;;;5094600;28;20318;-76
2023/04/14 09:09:25;;;;;;;6.93;6.32;;;12.00;99.90;;;;;;5092896;28;20215;-76
2023/04/14 09:11:53;;;;;;;9.35;5.95;;;12.00;99.90;;;;;;5093935;28;20611;-76
2023/04/14 09:14:20;;;;;;;6.47;5.82;;;12.10;99.90;;;;;;5092781;28;20269;-76
2023/04/14 09:16:52;;;;;;;5.82;5.38;;;12.10;99.90;;;;;;5093923;28;20239;-77
2023/04/14 09:19:22;;;;;;;6.40;5.55;;;12.10;99.90;;;;;;5096087;28;20531;-79
2023/04/14 09:21:49;;;;;;;6.35;5.72;;;12.10;99.90;;;;;;5093660;28;20314;-78
2023/04/14 09:24:22;;;;;;;7.50;6.80;;;12.10;99.90;;;;;;5083130;28;20250;-76
2023/04/14 09:26:53;;;;;;;6.93;6.32;;;12.10;99.90;;;;;;5091435;28;20288;-76
2023/04/14 09:29:20;;;;;;;7.35;4.90;;;12.00;99.90;;;;;;5093687;28;20229;-79
2023/04/14 09:31:48;;;;;;;6.80;5.60;;;12.00;99.90;;;;;;5093881;28;20223;-76
2023/04/14 09:34:20;;;;;;;5.93;5.43;;;12.00;99.90;;;;;;5093521;28;20754;-76
2023/04/14 09:37:03;;;;;;;5.60;5.20;;;11.90;99.90;;;;;;5093207;28;20216;-76
2023/04/14 09:39:31;;;;;;;11.50;10.15;;;11.90;99.90;;;;;;5093330;28;20268;-76
2023/04/14 09:41:59;;;;;;;7.07;6.38;;;11.80;99.90;;;;;;5094326;28;20223;-79
2023/04/14 09:44:26;;;;;;;6.25;5.65;;;11.80;99.90;;;;;;5093398;28;20252;-78
2023/04/14 09:46:58;;;;;;;4.70;4.30;;;11.90;99.90;;;;;;5093617;28;20721;-79
2023/04/14 09:49:25;;;;;;;4.93;4.53;;;11.90;99.90;;;;;;5093781;28;20219;-76
2023/04/14 09:51:54;;;;;;;5.50;4.65;;;11.90;99.90;;;;;;5092859;28;20595;-76
2023/04/14 09:54:26;;;;;;;6.03;5.53;;;11.90;99.90;;;;;;5093435;28;20242;-75
2023/04/14 09:56:53;;;;;;;5.53;5.03;;;11.90;99.90;;;;;;5092303;28;20605;-77
2023/04/14 09:59:37;;;;;;;5.82;5.25;;;11.90;99.90;;;;;;5093663;28;20229;-76
2023/04/14 10:02:07;;;;;;;5.95;5.35;;;11.90;99.90;;;;;;5093304;28;20234;-76
2023/04/14 10:04:38;;;;;;;6.70;6.00;;;11.90;99.90;;;;;;5093368;28;20223;-76
2023/04/14 10:07:07;;;;;;;6.10;5.15;;;12.00;99.90;;;;;;5093027;28;20227;-76
2023/04/14 10:09:39;;;;;;;6.75;5.18;;;12.00;99.90;;;;;;5092217;28;20227;-79
2023/04/14 10:12:11;;;;;;;6.13;5.50;;;12.10;99.90;;;;;;5093206;28;20219;-76
2023/04/14 10:14:38;;;;;;;6.97;5.00;;;12.10;99.90;;;;;;5092602;28;20305;-76
2023/04/14 10:17:06;;;;;;;5.15;4.68;;;12.10;99.90;;;;;;5092454;28;20259;-76
2023/04/14 10:19:34;;;;;;;5.10;4.70;;;12.10;99.90;;;;;;5083675;28;20567;-76
2023/04/14 10:22:22;;;;;;;5.10;4.70;;;12.20;99.90;;;;;;5094346;28;20219;-76
2023/04/14 10:24:52;;;;;;;4.57;4.18;;;12.20;99.90;;;;;;5095204;28;20246;-76
2023/04/14 10:27:19;;;;;;;5.72;4.68;;;12.20;99.90;;;;;;5086386;28;20680;-79
2023/04/14 10:30:09;;;;;;;6.40;5.05;;;12.20;99.90;;;;;;5097083;28;20608;-79
2023/04/14 10:32:39;;;;;;;5.60;5.00;;;12.10;99.90;;;;;;5094460;28;20257;-77
2023/04/14 10:35:09;;;;;;;5.43;4.97;;;12.10;99.90;;;;;;5098644;28;20230;-79
2023/04/14 10:38:13;;;;;;;6.05;5.40;;;12.10;99.90;;;;;;5085969;28;20310;-79
2023/04/14 10:40:52;;;;;;;5.15;4.65;;;12.00;99.90;;;;;;5078657;28;20246;-79
2023/04/14 10:43:20;;;;;;;6.82;6.13;;;12.00;99.90;;;;;;5095832;28;20230;-77
2023/04/14 10:45:54;;;;;;;5.60;5.00;;;12.00;99.90;;;;;;5096561;28;20687;-79
2023/04/14 10:48:24;;;;;;;5.07;4.57;;;12.00;99.90;;;;;;5098640;28;20302;-79
2023/04/14 10:50:56;;;;;;;6.45;5.38;;;12.00;99.90;;;;;;5098082;28;20231;-78
2023/04/14 10:53:26;;;;;;;6.68;5.20;;;12.10;99.90;;;;;;5086367;28;20224;-76
2023/04/14 10:55:56;;;;;;;7.47;6.72;;;12.10;99.90;;;;;;5097978;28;20566;-78
2023/04/14 10:58:28;;;;;;;7.40;5.60;;;12.00;99.90;;;;;;5086446;28;20238;-79
2023/04/14 11:01:45;;;;;;;;;;;;;;;;;;;;;
2023/04/14 11:04:59;;;;;;;6.00;5.20;;;11.90;99.90;;;;;;4995875;28;20227;-77
2023/04/14 11:07:39;;;;;;;8.32;5.43;;;11.90;99.90;;;;;;5096489;28;20303;-79
2023/04/14 11:10:36;;;;;;;5.60;4.90;;;11.90;99.90;;;;;;5095098;28;20276;-77
2023/04/14 11:20:07;;;;;;;6.88;6.22;;;11.80;99.90;;;;;;4973224;28;20226;-81
2023/04/14 11:26:23;;;;;;;;;;;;;;;;;;;;;
2023/04/14 11:52:36;;;;;;;5.80;5.30;;;11.60;99.90;;;;;;5084474;28;20303;-80
2023/04/14 11:55:36;;;;;;;;;;;;;;;;;;;;;
2023/04/14 12:11:45;;;;;;;5.60;5.10;;;11.50;99.90;;;;;;4976895;28;20227;-79
2023/04/14 12:14:50;;;;;;;5.88;5.28;;;11.50;99.90;;;;;;5011771;28;20253;-79
2023/04/14 12:17:49;;;;;;;6.10;5.53;;;11.50;99.90;;;;;;5014191;28;20232;-77
2023/04/14 12:26:36;;;;;;;6.80;6.20;;;11.50;99.90;;;;;;5065678;28;20342;-76
2023/04/14 12:29:05;;;;;;;5.63;5.13;;;11.50;99.90;;;;;;5099559;28;20300;-76
2023/04/14 12:31:36;;;;;;;6.40;5.78;;;11.50;99.90;;;;;;5086923;28;20686;-76
2023/04/14 12:34:05;;;;;;;6.20;5.60;;;11.50;99.90;;;;;;5094773;28;20308;-77
2023/04/14 12:36:32;;;;;;;8.73;5.88;;;11.50;99.90;;;;;;5088905;28;20230;-79
2023/04/14 12:39:05;;;;;;;6.80;5.90;;;11.50;99.90;;;;;;5096861;28;20300;-78
2023/04/14 12:41:32;;;;;;;8.38;7.50;;;11.50;99.90;;;;;;5098182;28;20701;-77
2023/04/14 12:43:59;;;;;;;6.65;5.70;;;11.50;99.90;;;;;;5095496;28;20219;-76
2023/04/14 12:46:30;;;;;;;6.80;4.47;;;11.50;99.90;;;;;;5094993;28;20228;-76
2023/04/14 12:48:57;;;;;;;6.57;5.90;;;11.50;99.90;;;;;;5096861;28;20227;-78
2023/04/14 12:51:24;;;;;;;5.18;4.78;;;11.50;99.90;;;;;;5100184;28;20649;-79
2023/04/14 12:53:52;;;;;;;6.68;6.07;;;11.50;99.90;;;;;;5099120;28;20280;-79
2023/04/14 12:56:22;;;;;;;6.60;6.00;;;11.50;99.90;;;;;;5095910;28;20226;-76
2023/04/14 12:58:50;;;;;;;6.80;6.05;;;11.50;99.90;;;;;;5095245;28;20227;-78
2023/04/14 13:01:19;;;;;;;9.35;7.35;;;11.50;99.90;;;;;;5095981;28;20280;-79
2023/04/14 13:03:50;;;;;;;6.53;5.93;;;11.50;99.90;;;;;;5100306;28;20225;-78
2023/04/14 13:06:24;;;;;;;6.40;5.85;;;11.40;99.90;;;;;;5091326;28;20852;-78
2023/04/14 13:08:53;;;;;;;10.05;6.53;;;11.30;99.90;;;;;;5089758;28;20234;-79
2023/04/14 13:11:21;;;;;;;6.22;5.63;;;11.30;99.90;;;;;;5098579;28;20330;-76
2023/04/14 13:13:54;;;;;;;5.75;5.07;;;11.40;99.90;;;;;;5094697;28;20220;-78
2023/04/14 13:16:24;;;;;;;6.72;6.07;;;11.30;99.90;;;;;;5100465;28;20227;-79
2023/04/14 13:18:58;;;;;;;6.78;5.60;;;11.30;99.90;;;;;;5104733;28;20227;-80
2023/04/14 13:21:26;;;;;;;5.20;4.70;;;11.30;99.90;;;;;;5102705;28;20288;-78
2023/04/14 13:23:55;;;;;;;6.80;6.10;;;11.30;99.90;;;;;;5096263;28;20227;-78
2023/04/14 13:26:22;;;;;;;6.50;5.90;;;11.30;99.90;;;;;;5096458;28;20318;-76
2023/04/14 13:28:49;;;;;;;6.22;5.70;;;11.30;99.90;;;;;;5096385;28;20230;-76
2023/04/14 13:31:18;;;;;;;6.57;6.05;;;11.40;99.90;;;;;;5097074;28;20230;-76
2023/04/14 13:33:45;;;;;;;6.13;5.47;;;11.40;99.90;;;;;;5099583;28;20238;-78
2023/04/14 13:36:17;;;;;;;5.22;4.82;;;11.40;99.90;;;;;;5101282;28;20226;-76
2023/04/14 13:38:45;;;;;;;7.40;5.72;;;11.50;99.90;;;;;;5104451;28;20228;-77
2023/04/14 13:41:14;;;;;;;4.65;4.20;;;11.50;99.90;;;;;;5103313;28;20245;-79
2023/04/14 13:43:43;;;;;;;5.00;4.57;;;11.50;99.90;;;;;;5109288;28;20235;-79
2023/04/14 13:46:11;;;;;;;4.88;4.45;;;11.50;99.90;;;;;;5111590;28;20257;-78
2023/04/14 13:48:38;;;;;;;6.00;5.40;;;11.50;99.90;;;;;;5111899;28;20317;-79
2023/04/14 13:51:06;;;;;;;5.60;5.00;;;11.40;99.90;;;;;;5103249;28;20239;-79
2023/04/14 13:53:34;;;;;;;4.45;4.15;;;11.50;99.90;;;;;;5100678;28;20250;-79
2023/04/14 13:56:01;;;;;;;5.88;5.35;;;11.50;99.90;;;;;;5106119;28;20253;-79
2023/04/14 13:58:28;;;;;;;5.18;4.68;;;11.50;99.90;;;;;;5096104;28;20273;-77
2023/04/14 14:00:55;;;;;;;5.57;5.05;;;11.40;99.90;;;;;;5095866;28;20717;-76